createdAt,value
2022-12-03T00:00:13.142Z,14.45
2022-12-03T00:00:25.333Z,14.82
2022-12-03T00:00:37.165Z,15.13
2022-12-03T00:00:49.101Z,15.38
2022-12-03T00:01:00.931Z,14.98
2022-12-03T00:01:13.772Z,14.07
2022-12-03T00:01:25.525Z,14.23
2022-12-03T00:01:37.357Z,13.40
2022-12-03T00:01:49.254Z,13.88
2022-12-03T00:02:01.088Z,14.00
2022-12-03T00:02:14.002Z,14.15
2022-12-03T00:02:26.026Z,13.43
2022-12-03T00:02:38.007Z,13.27
2022-12-03T00:02:50.021Z,13.45
2022-12-03T00:03:01.947Z,13.50
2022-12-03T00:03:14.000Z,13.18
2022-12-03T00:03:26.116Z,13.25
2022-12-03T00:03:38.306Z,13.20
2022-12-03T00:03:50.340Z,13.30
2022-12-03T00:04:02.472Z,13.07
2022-12-03T00:04:14.387Z,12.70
2022-12-03T00:04:26.230Z,12.40
2022-12-03T00:04:38.151Z,12.30
2022-12-03T00:04:50.140Z,12.02
2022-12-03T00:05:02.046Z,12.63
2022-12-03T00:05:13.803Z,12.38
2022-12-03T00:05:25.657Z,12.18
2022-12-03T00:05:37.504Z,12.07
2022-12-03T00:05:49.505Z,12.18
2022-12-03T00:06:01.403Z,12.35
2022-12-03T00:06:13.139Z,12.77
2022-12-03T00:06:25.683Z,12.75
2022-12-03T00:06:38.953Z,12.25
2022-12-03T00:06:51.184Z,11.70
2022-12-03T00:07:03.469Z,12.57
2022-12-03T00:07:15.321Z,12.60
2022-12-03T00:07:27.171Z,12.38
2022-12-03T00:07:39.031Z,13.38
2022-12-03T00:07:50.923Z,13.77
2022-12-03T00:08:02.825Z,12.85
2022-12-03T00:08:14.770Z,12.55
2022-12-03T00:08:26.705Z,12.73
2022-12-03T00:08:38.581Z,13.18
2022-12-03T00:08:50.364Z,13.23
2022-12-03T00:09:02.477Z,12.48
2022-12-03T00:09:14.301Z,12.27
2022-12-03T00:09:26.017Z,12.60
2022-12-03T00:09:37.759Z,13.00
2022-12-03T00:09:49.521Z,12.23
2022-12-03T00:10:01.326Z,11.60
2022-12-03T00:10:13.161Z,11.65
2022-12-03T00:10:24.886Z,12.00
2022-12-03T00:10:36.737Z,12.90
2022-12-03T00:10:48.521Z,12.80
2022-12-03T00:11:00.346Z,12.55
2022-12-03T00:11:12.171Z,11.88
2022-12-03T00:11:24.014Z,12.25
2022-12-03T00:11:35.825Z,11.95
2022-12-03T00:11:47.790Z,11.63
2022-12-03T00:11:59.656Z,11.77
2022-12-03T00:12:11.482Z,12.18
2022-12-03T00:12:23.289Z,12.82
2022-12-03T00:12:35.148Z,12.23
2022-12-03T00:12:47.038Z,12.07
2022-12-03T00:12:58.822Z,12.07
2022-12-03T00:13:10.686Z,12.15
2022-12-03T00:13:22.467Z,12.35
2022-12-03T00:13:34.724Z,12.68
2022-12-03T00:13:46.612Z,13.05
2022-12-03T00:13:58.479Z,12.90
2022-12-03T00:14:10.313Z,13.20
2022-12-03T00:14:22.132Z,13.20
2022-12-03T00:14:34.521Z,12.82
2022-12-03T00:14:46.369Z,12.02
2022-12-03T00:14:58.436Z,12.65
2022-12-03T00:15:11.040Z,12.38
2022-12-03T00:15:22.804Z,12.07
2022-12-03T00:15:34.768Z,12.90
2022-12-03T00:15:46.645Z,13.13
2022-12-03T00:15:58.629Z,13.88
2022-12-03T00:16:10.514Z,13.35
2022-12-03T00:16:22.361Z,13.00
2022-12-03T00:16:34.247Z,12.23
2022-12-03T00:16:46.539Z,12.70
2022-12-03T00:16:58.336Z,12.88
2022-12-03T00:17:10.143Z,12.65
2022-12-03T00:17:22.047Z,12.50
2022-12-03T00:17:33.922Z,12.55
2022-12-03T00:17:45.657Z,13.00
2022-12-03T00:17:57.706Z,12.70
2022-12-03T00:18:09.516Z,12.30
2022-12-03T00:18:21.266Z,12.30
2022-12-03T00:18:33.014Z,12.38
2022-12-03T00:18:44.820Z,12.34
2022-12-03T00:18:57.054Z,11.93
2022-12-03T00:19:08.908Z,12.32
2022-12-03T00:19:20.730Z,12.54
2022-12-03T00:19:32.562Z,11.48
2022-12-03T00:19:44.337Z,11.40
2022-12-03T00:19:56.175Z,11.45
2022-12-03T00:20:08.872Z,11.63
2022-12-03T00:20:23.170Z,10.95
2022-12-03T00:20:34.930Z,11.32
2022-12-03T00:20:46.786Z,11.45
2022-12-03T00:20:58.582Z,11.65
2022-12-03T00:21:10.424Z,11.20
2022-12-03T00:21:24.448Z,10.93
2022-12-03T00:21:36.632Z,10.95
2022-12-03T00:21:48.349Z,10.75
2022-12-03T00:22:00.167Z,11.38
2022-12-03T00:22:12.933Z,11.23
2022-12-03T00:22:24.817Z,11.38
2022-12-03T00:22:36.631Z,10.75
2022-12-03T00:22:48.605Z,11.48
2022-12-03T00:23:00.367Z,11.18
2022-12-03T00:23:12.116Z,10.60
2022-12-03T00:23:23.902Z,10.20
2022-12-03T00:23:41.566Z,11.18
2022-12-03T00:23:53.987Z,11.50
2022-12-03T00:24:06.194Z,10.52
2022-12-03T00:24:18.071Z,10.85
2022-12-03T00:24:29.949Z,11.77
2022-12-03T00:24:41.749Z,12.35
2022-12-03T00:24:53.831Z,12.40
2022-12-03T00:25:06.731Z,12.00
2022-12-03T00:25:18.580Z,11.77
2022-12-03T00:25:30.534Z,11.65
2022-12-03T00:25:42.354Z,12.23
2022-12-03T00:25:54.123Z,11.98
2022-12-03T00:26:06.045Z,11.05
2022-12-03T00:26:17.809Z,10.73
2022-12-03T00:26:29.629Z,11.50
2022-12-03T00:26:41.502Z,11.55
2022-12-03T00:26:53.248Z,11.45
2022-12-03T00:27:05.079Z,12.15
2022-12-03T00:27:16.944Z,12.00
2022-12-03T00:27:28.690Z,11.05
2022-12-03T00:27:40.489Z,11.00
2022-12-03T00:27:52.225Z,11.98
2022-12-03T00:28:04.313Z,11.68
2022-12-03T00:28:16.102Z,11.77
2022-12-03T00:28:27.847Z,11.18
2022-12-03T00:28:39.605Z,11.60
2022-12-03T00:28:51.775Z,11.52
2022-12-03T00:29:03.893Z,11.35
2022-12-03T00:29:15.756Z,11.10
2022-12-03T00:29:27.499Z,11.23
2022-12-03T00:29:39.294Z,11.02
2022-12-03T00:29:51.069Z,10.95
2022-12-03T00:30:03.034Z,11.02
2022-12-03T00:30:14.989Z,11.30
2022-12-03T00:30:26.813Z,11.88
2022-12-03T00:30:38.604Z,11.27
2022-12-03T00:30:53.851Z,10.85
2022-12-03T00:31:05.904Z,11.07
2022-12-03T00:31:18.628Z,12.23
2022-12-03T00:31:30.523Z,12.40
2022-12-03T00:31:43.291Z,13.07
2022-12-03T00:31:55.224Z,12.23
2022-12-03T00:32:07.011Z,10.93
2022-12-03T00:32:18.895Z,10.45
2022-12-03T00:32:30.707Z,10.73
2022-12-03T00:32:42.533Z,11.02
2022-12-03T00:32:54.307Z,11.15
2022-12-03T00:33:06.103Z,11.32
2022-12-03T00:33:17.938Z,10.93
2022-12-03T00:33:29.840Z,10.68
2022-12-03T00:33:41.632Z,10.73
2022-12-03T00:33:53.455Z,10.43
2022-12-03T00:34:05.262Z,10.32
2022-12-03T00:34:17.071Z,10.07
2022-12-03T00:34:29.191Z,10.82
2022-12-03T00:34:40.983Z,10.60
2022-12-03T00:34:53.174Z,10.40
2022-12-03T00:35:05.635Z,10.63
2022-12-03T00:35:17.612Z,10.77
2022-12-03T00:35:29.366Z,10.10
2022-12-03T00:35:41.101Z,10.20
2022-12-03T00:35:52.872Z,10.60
2022-12-03T00:36:05.105Z,10.90
2022-12-03T00:36:17.074Z,10.18
2022-12-03T00:36:28.935Z,10.27
2022-12-03T00:36:40.797Z,10.30
2022-12-03T00:36:52.570Z,11.00
2022-12-03T00:37:04.361Z,11.40
2022-12-03T00:37:16.147Z,11.65
2022-12-03T00:37:28.000Z,10.98
2022-12-03T00:37:39.821Z,10.57
2022-12-03T00:37:51.638Z,10.93
2022-12-03T00:38:03.420Z,11.35
2022-12-03T00:38:15.368Z,11.38
2022-12-03T00:38:27.103Z,10.98
2022-12-03T00:38:39.000Z,10.50
2022-12-03T00:38:50.848Z,10.52
2022-12-03T00:39:02.820Z,10.63
2022-12-03T00:39:14.957Z,11.13
2022-12-03T00:39:26.746Z,10.52
2022-12-03T00:39:38.506Z,11.40
2022-12-03T00:39:50.497Z,11.48
2022-12-03T00:40:04.351Z,12.10
2022-12-03T00:40:16.170Z,12.80
2022-12-03T00:40:28.302Z,12.52
2022-12-03T00:40:40.210Z,12.05
2022-12-03T00:40:52.030Z,11.82
2022-12-03T00:41:04.618Z,12.07
2022-12-03T00:41:16.369Z,11.18
2022-12-03T00:41:28.237Z,11.10
2022-12-03T00:41:40.061Z,11.48
2022-12-03T00:41:51.850Z,11.38
2022-12-03T00:42:03.922Z,10.73
2022-12-03T00:42:15.709Z,10.73
2022-12-03T00:42:27.721Z,10.95
2022-12-03T00:42:39.605Z,11.00
2022-12-03T00:42:51.469Z,11.02
2022-12-03T00:43:03.267Z,10.98
2022-12-03T00:43:15.006Z,10.60
2022-12-03T00:43:26.850Z,10.13
2022-12-03T00:43:39.067Z,10.07
2022-12-03T00:43:50.879Z,10.45
2022-12-03T00:44:02.739Z,11.48
2022-12-03T00:44:14.564Z,11.70
2022-12-03T00:44:26.524Z,11.82
2022-12-03T00:44:38.278Z,11.18
2022-12-03T00:44:50.195Z,11.45
2022-12-03T00:45:02.101Z,11.32
2022-12-03T00:45:14.013Z,11.00
2022-12-03T00:45:26.240Z,11.18
2022-12-03T00:45:38.120Z,11.10
2022-12-03T00:45:50.057Z,10.48
2022-12-03T00:46:01.846Z,10.10
2022-12-03T00:46:18.172Z,10.65
2022-12-03T00:46:32.832Z,12.10
2022-12-03T00:46:44.662Z,11.68
2022-12-03T00:46:56.513Z,11.18
2022-12-03T00:47:08.448Z,10.13
2022-12-03T00:47:20.274Z,10.05
2022-12-03T00:47:32.125Z,10.60
2022-12-03T00:47:43.889Z,10.80
2022-12-03T00:47:55.733Z,10.88
2022-12-03T00:48:07.584Z,11.32
2022-12-03T00:48:19.366Z,10.82
2022-12-03T00:48:31.169Z,10.88
2022-12-03T00:48:42.943Z,11.45
2022-12-03T00:48:54.725Z,10.95
2022-12-03T00:49:06.687Z,10.60
2022-12-03T00:49:18.419Z,10.65
2022-12-03T00:49:31.198Z,10.27
2022-12-03T00:49:43.020Z,9.85
2022-12-03T00:49:54.802Z,9.75
2022-12-03T00:50:08.193Z,10.43
2022-12-03T00:50:19.967Z,10.68
2022-12-03T00:50:31.785Z,10.55
2022-12-03T00:50:43.647Z,10.23
2022-12-03T00:50:55.463Z,9.70
2022-12-03T00:51:07.239Z,9.25
2022-12-03T00:51:19.035Z,10.15
2022-12-03T00:51:30.862Z,10.25
2022-12-03T00:51:42.618Z,9.70
2022-12-03T00:51:54.343Z,9.40
2022-12-03T00:52:06.144Z,9.13
2022-12-03T00:52:18.390Z,9.00
2022-12-03T00:52:30.203Z,9.35
2022-12-03T00:52:42.078Z,9.25
2022-12-03T00:52:53.925Z,8.65
2022-12-03T00:53:05.725Z,8.82
2022-12-03T00:53:17.552Z,9.13
2022-12-03T00:53:29.352Z,9.45
2022-12-03T00:53:41.092Z,9.10
2022-12-03T00:53:52.845Z,8.90
2022-12-03T00:54:04.624Z,9.20
2022-12-03T00:54:16.568Z,9.02
2022-12-03T00:54:31.796Z,9.20
2022-12-03T00:54:44.169Z,8.95
2022-12-03T00:54:56.208Z,9.27
2022-12-03T00:55:10.157Z,9.75
2022-12-03T00:55:22.021Z,9.63
2022-12-03T00:55:33.856Z,9.38
2022-12-03T00:55:45.699Z,10.15
2022-12-03T00:55:57.563Z,10.07
2022-12-03T00:56:09.431Z,9.25
2022-12-03T00:56:21.642Z,8.90
2022-12-03T00:56:33.493Z,9.20
2022-12-03T00:56:45.283Z,9.30
2022-12-03T00:56:57.073Z,9.60
2022-12-03T00:57:08.950Z,9.50
2022-12-03T00:57:20.794Z,8.77
2022-12-03T00:57:32.589Z,8.70
2022-12-03T00:57:44.403Z,9.57
2022-12-03T00:57:56.318Z,10.05
2022-12-03T00:58:10.837Z,9.85
2022-12-03T00:58:24.851Z,9.98
2022-12-03T00:58:36.711Z,9.68
2022-12-03T00:58:48.691Z,9.65
2022-12-03T00:59:00.608Z,9.57
2022-12-03T00:59:12.408Z,9.05
2022-12-03T00:59:24.174Z,9.00
2022-12-03T00:59:36.024Z,9.57
2022-12-03T00:59:47.835Z,9.13
2022-12-03T00:59:59.589Z,9.13
2022-12-03T01:00:12.454Z,8.60
2022-12-03T01:00:25.333Z,8.23
2022-12-03T01:00:37.762Z,7.82
2022-12-03T01:00:49.541Z,8.48
2022-12-03T01:01:01.397Z,8.75
2022-12-03T01:01:13.380Z,8.75
2022-12-03T01:01:25.397Z,8.15
2022-12-03T01:01:37.183Z,8.10
2022-12-03T01:01:49.054Z,7.85
2022-12-03T01:02:00.943Z,7.78
2022-12-03T01:02:12.950Z,8.15
2022-12-03T01:02:24.811Z,8.48
2022-12-03T01:02:36.577Z,8.32
2022-12-03T01:02:48.326Z,8.68
2022-12-03T01:03:00.122Z,9.20
2022-12-03T01:03:11.895Z,9.68
2022-12-03T01:03:23.668Z,8.70
2022-12-03T01:03:35.809Z,9.13
2022-12-03T01:03:47.635Z,9.23
2022-12-03T01:03:59.454Z,8.80
2022-12-03T01:04:11.232Z,8.10
2022-12-03T01:04:23.242Z,8.50
2022-12-03T01:04:35.159Z,8.77
2022-12-03T01:04:47.006Z,8.90
2022-12-03T01:04:59.292Z,9.05
2022-12-03T01:05:11.304Z,8.90
2022-12-03T01:05:23.096Z,9.32
2022-12-03T01:05:34.918Z,9.10
2022-12-03T01:05:46.746Z,8.85
2022-12-03T01:05:58.497Z,8.63
2022-12-03T01:06:10.309Z,8.35
2022-12-03T01:06:22.155Z,8.82
2022-12-03T01:06:34.001Z,8.52
2022-12-03T01:06:45.810Z,8.98
2022-12-03T01:06:57.615Z,9.45
2022-12-03T01:07:09.441Z,10.32
2022-12-03T01:07:21.219Z,9.65
2022-12-03T01:07:33.164Z,9.65
2022-12-03T01:07:45.861Z,9.48
2022-12-03T01:07:57.670Z,9.15
2022-12-03T01:08:09.588Z,9.75
2022-12-03T01:08:21.433Z,10.05
2022-12-03T01:08:33.187Z,9.63
2022-12-03T01:08:44.965Z,9.60
2022-12-03T01:08:56.916Z,9.93
2022-12-03T01:09:08.831Z,9.90
2022-12-03T01:09:20.599Z,9.55
2022-12-03T01:09:32.418Z,9.18
2022-12-03T01:09:44.248Z,9.50
2022-12-03T01:09:55.978Z,9.52
2022-12-03T01:10:08.271Z,9.68
2022-12-03T01:10:20.122Z,9.75
2022-12-03T01:10:31.929Z,9.48
2022-12-03T01:10:43.704Z,9.25
2022-12-03T01:10:55.819Z,9.45
2022-12-03T01:11:27.567Z,9.40
2022-12-03T01:11:39.478Z,9.65
2022-12-03T01:11:51.278Z,8.93
2022-12-03T01:12:03.174Z,8.80
2022-12-03T01:12:15.018Z,9.43
2022-12-03T01:12:26.873Z,9.93
2022-12-03T01:12:38.771Z,9.55
2022-12-03T01:12:50.636Z,9.15
2022-12-03T01:13:02.421Z,9.82
2022-12-03T01:13:14.192Z,9.60
2022-12-03T01:13:25.946Z,9.77
2022-12-03T01:13:37.728Z,9.35
2022-12-03T01:13:49.572Z,10.00
2022-12-03T01:14:01.411Z,10.50
2022-12-03T01:14:15.508Z,9.75
2022-12-03T01:14:27.304Z,9.10
2022-12-03T01:14:39.128Z,9.60
2022-12-03T01:14:51.189Z,9.30
2022-12-03T01:15:03.778Z,8.93
2022-12-03T01:15:15.562Z,8.93
2022-12-03T01:15:27.328Z,8.52
2022-12-03T01:15:39.121Z,9.05
2022-12-03T01:15:50.882Z,9.50
2022-12-03T01:16:02.827Z,9.70
2022-12-03T01:16:14.740Z,9.48
2022-12-03T01:16:26.647Z,9.25
2022-12-03T01:16:38.787Z,8.63
2022-12-03T01:16:50.686Z,9.13
2022-12-03T01:17:02.519Z,9.25
2022-12-03T01:17:14.360Z,8.93
2022-12-03T01:17:26.289Z,8.52
2022-12-03T01:17:38.263Z,8.43
2022-12-03T01:17:50.155Z,8.95
2022-12-03T01:18:01.938Z,9.43
2022-12-03T01:18:14.069Z,9.75
2022-12-03T01:18:25.865Z,8.65
2022-12-03T01:18:37.645Z,9.07
2022-12-03T01:18:52.258Z,9.07
2022-12-03T01:19:04.591Z,9.95
2022-12-03T01:19:17.057Z,9.80
2022-12-03T01:19:31.553Z,9.48
2022-12-03T01:19:48.219Z,9.88
2022-12-03T01:20:01.571Z,9.50
2022-12-03T01:20:13.621Z,9.02
2022-12-03T01:20:25.567Z,9.10
2022-12-03T01:20:38.797Z,9.30
2022-12-03T01:20:50.520Z,9.40
2022-12-03T01:21:02.249Z,9.48
2022-12-03T01:21:14.078Z,9.50
2022-12-03T01:21:25.957Z,9.35
2022-12-03T01:21:37.908Z,9.77
2022-12-03T01:21:50.776Z,9.63
2022-12-03T01:22:02.620Z,8.77
2022-12-03T01:22:14.507Z,8.93
2022-12-03T01:22:26.333Z,9.05
2022-12-03T01:22:38.184Z,9.30
2022-12-03T01:22:49.920Z,9.38
2022-12-03T01:23:02.354Z,9.00
2022-12-03T01:23:14.211Z,8.55
2022-12-03T01:23:25.992Z,8.40
2022-12-03T01:23:37.733Z,8.05
2022-12-03T01:23:49.589Z,8.57
2022-12-03T01:24:01.584Z,9.13
2022-12-03T01:24:13.493Z,8.88
2022-12-03T01:24:25.319Z,8.98
2022-12-03T01:24:37.293Z,9.15
2022-12-03T01:24:49.154Z,8.95
2022-12-03T01:25:00.970Z,8.98
2022-12-03T01:25:12.721Z,8.82
2022-12-03T01:25:24.766Z,9.13
2022-12-03T01:25:36.585Z,9.46
2022-12-03T01:25:48.390Z,9.25
2022-12-03T01:26:00.172Z,8.85
2022-12-03T01:26:11.980Z,8.88
2022-12-03T01:26:25.187Z,9.25
2022-12-03T01:26:37.043Z,10.18
2022-12-03T01:26:48.896Z,10.25
2022-12-03T01:27:00.999Z,9.95
2022-12-03T01:27:12.859Z,9.70
2022-12-03T01:27:24.643Z,9.90
2022-12-03T01:27:36.450Z,8.95
2022-12-03T01:27:48.393Z,8.68
2022-12-03T01:28:00.264Z,8.77
2022-12-03T01:28:12.108Z,9.23
2022-12-03T01:28:23.972Z,9.35
2022-12-03T01:28:35.866Z,9.73
2022-12-03T01:28:47.742Z,9.55
2022-12-03T01:28:59.578Z,9.73
2022-12-03T01:29:11.858Z,9.38
2022-12-03T01:29:24.270Z,9.25
2022-12-03T01:29:36.034Z,9.15
2022-12-03T01:29:47.858Z,9.00
2022-12-03T01:29:59.650Z,8.77
2022-12-03T01:30:12.589Z,8.25
2022-12-03T01:30:24.451Z,8.48
2022-12-03T01:30:56.223Z,8.70
2022-12-03T01:31:27.548Z,10.15
2022-12-03T01:31:57.735Z,9.34
2022-12-03T01:32:19.863Z,9.63
2022-12-03T01:32:31.747Z,9.75
2022-12-03T01:32:43.542Z,10.07
2022-12-03T01:32:55.281Z,9.30
2022-12-03T01:33:07.100Z,9.36
2022-12-03T01:33:18.895Z,9.38
2022-12-03T01:33:30.738Z,9.68
2022-12-03T01:33:42.502Z,9.68
2022-12-03T01:33:54.367Z,9.43
2022-12-03T01:34:06.222Z,9.98
2022-12-03T01:34:18.006Z,9.82
2022-12-03T01:34:29.802Z,9.40
2022-12-03T01:34:41.635Z,9.45
2022-12-03T01:34:54.890Z,9.25
2022-12-03T01:35:07.455Z,9.63
2022-12-03T01:35:19.251Z,10.40
2022-12-03T01:35:31.016Z,10.15
2022-12-03T01:35:42.792Z,9.68
2022-12-03T01:35:54.587Z,9.98
2022-12-03T01:36:06.762Z,9.52
2022-12-03T01:36:18.564Z,8.50
2022-12-03T01:36:30.417Z,8.07
2022-12-03T01:36:42.211Z,8.40
2022-12-03T01:36:54.018Z,8.63
2022-12-03T01:37:05.801Z,8.90
2022-12-03T01:37:18.290Z,8.10
2022-12-03T01:37:30.436Z,8.23
2022-12-03T01:37:42.325Z,8.88
2022-12-03T01:37:54.517Z,9.68
2022-12-03T01:38:06.305Z,9.05
2022-12-03T01:38:18.021Z,8.65
2022-12-03T01:38:29.794Z,9.23
2022-12-03T01:38:41.583Z,9.20
2022-12-03T01:38:53.409Z,9.50
2022-12-03T01:39:05.302Z,9.25
2022-12-03T01:39:17.081Z,9.02
2022-12-03T01:39:28.944Z,9.05
2022-12-03T01:39:41.082Z,9.35
2022-12-03T01:39:53.119Z,8.75
2022-12-03T01:40:06.732Z,9.15
2022-12-03T01:40:19.448Z,9.27
2022-12-03T01:40:31.295Z,9.38
2022-12-03T01:40:43.081Z,8.85
2022-12-03T01:40:54.956Z,9.82
2022-12-03T01:41:11.473Z,9.73
2022-12-03T01:41:23.974Z,9.20
2022-12-03T01:41:35.730Z,9.55
2022-12-03T01:41:48.741Z,9.63
2022-12-03T01:42:00.512Z,9.90
2022-12-03T01:42:36.972Z,9.85
2022-12-03T01:42:48.774Z,9.68
2022-12-03T01:43:00.557Z,10.10
2022-12-03T01:43:12.311Z,9.75
2022-12-03T01:43:24.068Z,9.63
2022-12-03T01:43:35.874Z,9.73
2022-12-03T01:43:47.811Z,10.05
2022-12-03T01:43:59.684Z,9.85
2022-12-03T01:44:23.293Z,10.00
2022-12-03T01:44:35.639Z,9.80
2022-12-03T01:44:48.320Z,9.77
2022-12-03T01:45:00.250Z,9.50
2022-12-03T01:45:22.400Z,9.75
2022-12-03T01:45:34.182Z,10.02
2022-12-03T01:45:45.987Z,9.60
2022-12-03T01:45:57.881Z,10.07
2022-12-03T01:46:12.754Z,9.85
2022-12-03T01:46:28.595Z,9.93
2022-12-03T01:46:41.039Z,9.93
2022-12-03T01:46:53.603Z,9.50
2022-12-03T01:47:07.325Z,9.80
2022-12-03T01:47:20.254Z,10.52
2022-12-03T01:47:36.378Z,9.82
2022-12-03T01:47:48.081Z,8.88
2022-12-03T01:48:00.733Z,8.90
2022-12-03T01:48:15.350Z,9.20
2022-12-03T01:48:37.971Z,9.23
2022-12-03T01:48:50.753Z,9.85
2022-12-03T01:49:02.583Z,9.40
2022-12-03T01:49:19.095Z,9.80
2022-12-03T01:49:50.277Z,10.85
2022-12-03T01:50:17.545Z,9.30
2022-12-03T01:50:32.359Z,9.43
2022-12-03T01:50:44.142Z,9.85
2022-12-03T01:50:55.924Z,9.57
2022-12-03T01:51:07.845Z,9.40
2022-12-03T01:51:19.746Z,9.32
2022-12-03T01:51:31.630Z,9.38
2022-12-03T01:51:43.404Z,9.18
2022-12-03T01:51:55.270Z,9.48
2022-12-03T01:52:19.827Z,9.63
2022-12-03T01:52:36.815Z,9.00
2022-12-03T01:52:48.616Z,8.65
2022-12-03T01:53:01.748Z,9.00
2022-12-03T01:53:16.308Z,9.38
2022-12-03T01:53:28.135Z,8.98
2022-12-03T01:53:40.096Z,8.65
2022-12-03T01:53:51.912Z,8.25
2022-12-03T01:54:03.844Z,8.52
2022-12-03T01:54:22.642Z,8.98
2022-12-03T01:54:40.422Z,8.50
2022-12-03T01:54:58.091Z,8.30
2022-12-03T01:55:18.806Z,8.45
2022-12-03T01:55:30.652Z,8.55
2022-12-03T01:55:48.275Z,8.73
2022-12-03T01:56:00.586Z,8.63
2022-12-03T01:56:14.220Z,7.93
2022-12-03T01:56:26.032Z,7.32
2022-12-03T01:56:37.767Z,7.28
2022-12-03T01:56:49.610Z,6.75
2022-12-03T01:57:01.545Z,6.50
2022-12-03T01:57:26.360Z,6.50
2022-12-03T01:57:46.360Z,7.30
2022-12-03T01:58:00.381Z,7.70
2022-12-03T01:58:15.165Z,6.85
2022-12-03T01:58:28.980Z,6.82
2022-12-03T01:58:40.886Z,7.60
2022-12-03T01:58:52.667Z,7.93
2022-12-03T01:59:04.466Z,7.93
2022-12-03T01:59:22.047Z,8.05
2022-12-03T01:59:36.257Z,7.95
2022-12-03T01:59:48.130Z,7.75
2022-12-03T01:59:59.912Z,7.47
2022-12-03T02:00:16.983Z,7.22
2022-12-03T02:00:29.244Z,7.43
2022-12-03T02:00:41.033Z,7.30
2022-12-03T02:00:52.804Z,7.05
2022-12-03T02:01:10.057Z,7.22
2022-12-03T02:01:21.940Z,8.30
2022-12-03T02:01:33.829Z,8.52
2022-12-03T02:01:47.515Z,8.13
2022-12-03T02:01:59.910Z,7.65
2022-12-03T02:02:21.350Z,7.75
2022-12-03T02:02:33.170Z,8.30
2022-12-03T02:02:45.539Z,8.20
2022-12-03T02:03:02.238Z,8.02
2022-12-03T02:03:23.331Z,7.85
2022-12-03T02:03:35.122Z,8.48
2022-12-03T02:03:47.048Z,7.78
2022-12-03T02:03:58.857Z,7.57
2022-12-03T02:04:16.085Z,7.57
2022-12-03T02:04:28.182Z,7.63
2022-12-03T02:04:40.104Z,7.22
2022-12-03T02:04:53.360Z,7.15
2022-12-03T02:05:40.684Z,7.72
2022-12-03T02:05:52.609Z,7.40
2022-12-03T02:06:04.597Z,7.72
2022-12-03T02:06:19.100Z,7.60
2022-12-03T02:06:30.951Z,6.90
2022-12-03T02:06:43.477Z,6.95
2022-12-03T02:06:55.244Z,7.30
2022-12-03T02:07:23.799Z,7.43
2022-12-03T02:07:35.598Z,7.50
2022-12-03T02:07:47.475Z,8.13
2022-12-03T02:07:59.721Z,7.40
2022-12-03T02:08:31.540Z,6.90
2022-12-03T02:08:44.866Z,6.78
2022-12-03T02:08:59.719Z,6.85
2022-12-03T02:09:12.706Z,6.97
2022-12-03T02:09:24.452Z,7.40
2022-12-03T02:09:36.245Z,7.43
2022-12-03T02:09:48.077Z,7.03
2022-12-03T02:10:01.534Z,6.57
2022-12-03T02:10:14.968Z,6.57
2022-12-03T02:10:32.665Z,7.05
2022-12-03T02:10:44.439Z,6.80
2022-12-03T02:10:57.718Z,6.93
2022-12-03T02:11:21.993Z,7.00
2022-12-03T02:11:36.653Z,7.38
2022-12-03T02:11:49.712Z,6.82
2022-12-03T02:12:01.477Z,7.25
2022-12-03T02:12:14.134Z,7.18
2022-12-03T02:12:36.639Z,7.15
2022-12-03T02:13:03.751Z,7.32
2022-12-03T02:13:15.471Z,7.57
2022-12-03T02:13:27.313Z,7.63
2022-12-03T02:13:39.134Z,7.38
2022-12-03T02:13:52.981Z,7.18
2022-12-03T02:14:09.169Z,7.53
2022-12-03T02:14:21.079Z,8.07
2022-12-03T02:14:32.840Z,7.93
2022-12-03T02:14:44.570Z,7.32
2022-12-03T02:14:56.437Z,7.45
2022-12-03T02:15:08.795Z,7.70
2022-12-03T02:15:20.673Z,7.84
2022-12-03T02:15:32.458Z,7.80
2022-12-03T02:15:44.688Z,8.35
2022-12-03T02:15:56.642Z,8.10
2022-12-03T02:16:08.767Z,8.15
2022-12-03T02:16:20.718Z,7.63
2022-12-03T02:16:32.589Z,7.75
2022-12-03T02:16:45.222Z,8.07
2022-12-03T02:16:57.084Z,8.60
2022-12-03T02:17:08.878Z,8.20
2022-12-03T02:17:20.764Z,6.95
2022-12-03T02:17:32.695Z,7.03
2022-12-03T02:17:44.648Z,7.80
2022-12-03T02:17:56.483Z,8.05
2022-12-03T02:18:08.991Z,7.57
2022-12-03T02:18:20.790Z,7.63
2022-12-03T02:18:32.643Z,7.60
2022-12-03T02:18:44.510Z,7.00
2022-12-03T02:18:57.210Z,7.03
2022-12-03T02:19:19.509Z,7.00
2022-12-03T02:19:31.580Z,7.60
2022-12-03T02:19:43.364Z,7.75
2022-12-03T02:19:55.412Z,7.55
2022-12-03T02:20:09.251Z,7.18
2022-12-03T02:20:21.044Z,7.43
2022-12-03T02:20:35.643Z,7.63
2022-12-03T02:20:58.558Z,7.85
2022-12-03T02:21:29.259Z,8.43
2022-12-03T02:21:52.807Z,8.10
2022-12-03T02:22:32.195Z,8.35
2022-12-03T02:23:34.986Z,7.93
2022-12-03T02:23:59.735Z,8.05
2022-12-03T02:24:43.938Z,7.55
2022-12-03T02:24:59.332Z,8.65
2022-12-03T02:25:25.135Z,8.13
2022-12-03T02:25:37.136Z,8.23
2022-12-03T02:25:48.914Z,8.23
2022-12-03T02:26:00.718Z,8.60
2022-12-03T02:26:12.530Z,8.65
2022-12-03T02:26:24.423Z,8.68
2022-12-03T02:26:36.300Z,8.30
2022-12-03T02:26:48.344Z,8.20
2022-12-03T02:27:00.171Z,8.23
2022-12-03T02:27:11.991Z,8.75
2022-12-03T02:27:23.858Z,8.63
2022-12-03T02:27:35.776Z,8.18
2022-12-03T02:27:47.955Z,7.97
2022-12-03T02:27:59.905Z,8.35
2022-12-03T02:28:11.781Z,8.95
2022-12-03T02:28:23.590Z,8.82
2022-12-03T02:28:35.340Z,8.18
2022-12-03T02:28:47.163Z,8.73
2022-12-03T02:28:58.968Z,8.52
2022-12-03T02:29:10.878Z,8.45
2022-12-03T02:29:23.761Z,8.55
2022-12-03T02:29:35.625Z,8.40
2022-12-03T02:29:47.407Z,8.27
2022-12-03T02:29:59.277Z,8.60
2022-12-03T02:30:11.903Z,8.05
2022-12-03T02:30:25.161Z,8.52
2022-12-03T02:30:37.031Z,8.75
2022-12-03T02:30:48.858Z,8.70
2022-12-03T02:31:00.750Z,8.73
2022-12-03T02:31:12.630Z,8.57
2022-12-03T02:31:24.686Z,8.18
2022-12-03T02:31:36.621Z,8.00
2022-12-03T02:31:48.428Z,8.40
2022-12-03T02:32:00.337Z,8.57
2022-12-03T02:32:12.272Z,8.98
2022-12-03T02:32:24.104Z,8.73
2022-12-03T02:32:35.911Z,8.18
2022-12-03T02:32:48.400Z,7.75
2022-12-03T02:33:00.189Z,8.45
2022-12-03T02:33:11.972Z,8.44
2022-12-03T02:33:23.773Z,8.95
2022-12-03T02:33:36.065Z,9.13
2022-12-03T02:33:47.828Z,8.90
2022-12-03T02:33:59.592Z,8.25
2022-12-03T02:34:11.591Z,7.43
2022-12-03T02:34:37.024Z,7.15
2022-12-03T02:34:49.124Z,7.18
2022-12-03T02:35:00.946Z,8.10
2022-12-03T02:35:18.500Z,7.75
2022-12-03T02:35:34.387Z,7.47
2022-12-03T02:35:46.274Z,7.80
2022-12-03T02:36:03.152Z,7.57
2022-12-03T02:36:15.539Z,7.97
2022-12-03T02:36:27.683Z,8.25
2022-12-03T02:36:39.463Z,8.20
2022-12-03T02:36:51.232Z,8.38
2022-12-03T02:37:03.137Z,8.25
2022-12-03T02:37:18.687Z,8.20
2022-12-03T02:37:35.676Z,8.55
2022-12-03T02:37:50.344Z,8.80
2022-12-03T02:38:14.776Z,8.27
2022-12-03T02:38:27.278Z,7.90
2022-12-03T02:38:39.829Z,8.23
2022-12-03T02:38:51.568Z,8.68
2022-12-03T02:39:04.243Z,8.35
2022-12-03T02:39:16.110Z,7.70
2022-12-03T02:39:27.901Z,7.88
2022-12-03T02:39:43.219Z,8.30
2022-12-03T02:39:56.694Z,8.48
2022-12-03T02:40:11.402Z,8.48
2022-12-03T02:40:24.928Z,8.75
2022-12-03T02:40:36.761Z,9.23
2022-12-03T02:40:50.123Z,8.45
2022-12-03T02:41:06.136Z,8.30
2022-12-03T02:41:38.022Z,8.70
2022-12-03T02:42:09.436Z,8.20
2022-12-03T02:42:36.359Z,8.32
2022-12-03T02:42:48.704Z,8.45
2022-12-03T02:43:02.002Z,8.60
2022-12-03T02:43:14.950Z,8.82
2022-12-03T02:43:26.758Z,8.85
2022-12-03T02:43:38.529Z,8.48
2022-12-03T02:43:50.343Z,8.00
2022-12-03T02:44:03.008Z,7.72
2022-12-03T02:44:14.838Z,7.50
2022-12-03T02:44:26.610Z,7.53
2022-12-03T02:44:38.375Z,8.68
2022-12-03T02:44:50.184Z,8.90
2022-12-03T02:45:12.701Z,9.27
2022-12-03T02:45:34.433Z,8.98
2022-12-03T02:45:52.203Z,8.65
2022-12-03T02:46:04.156Z,8.57
2022-12-03T02:46:15.932Z,8.93
2022-12-03T02:46:27.879Z,8.60
2022-12-03T02:46:39.790Z,8.57
2022-12-03T02:46:51.712Z,9.25
2022-12-03T02:47:03.557Z,9.13
2022-12-03T02:47:15.524Z,8.88
2022-12-03T02:47:27.385Z,8.93
2022-12-03T02:47:46.075Z,9.48
2022-12-03T02:48:09.854Z,10.45
2022-12-03T02:48:34.543Z,9.07
2022-12-03T02:48:46.298Z,8.10
2022-12-03T02:48:58.102Z,7.95
2022-12-03T02:49:09.904Z,8.27
2022-12-03T02:49:21.781Z,8.20
2022-12-03T02:49:33.641Z,7.85
2022-12-03T02:49:45.528Z,8.18
2022-12-03T02:49:57.515Z,8.50
2022-12-03T02:50:10.235Z,8.63
2022-12-03T02:50:28.910Z,9.23
2022-12-03T02:50:44.086Z,8.95
2022-12-03T02:50:59.280Z,7.97
2022-12-03T02:51:11.120Z,8.27
2022-12-03T02:51:22.906Z,8.73
2022-12-03T02:51:34.746Z,8.95
2022-12-03T02:51:46.591Z,8.63
2022-12-03T02:51:58.485Z,8.30
2022-12-03T02:52:10.550Z,8.00
2022-12-03T02:52:22.885Z,8.32
2022-12-03T02:52:34.891Z,8.60